Terminal Aerodrome Forecast
Issued by NWS Jacksonville, FL

Home | Current Version | Previous Version | Text Only | Print | Product List | Glossary On
Versions: 1 2 3 4 5 6 7 8 9 10 11 12 13 14 15 16 17 18 19 20 21 22 23 24 25 26
000
FTUS42 KJAX 051722
TAFSSI
TAF
KSSI 051722Z 0518/0618 21012G22KT P6SM SCT030 BKN040
     FM052100 23010KT P6SM VCSH SCT025 BKN040
     FM060200 28008G16KT P6SM VCSH BKN020
     FM060500 33009KT P6SM SCT010 BKN020
     FM061000 02011G20KT P6SM SCT010 BKN020=

USA.gov is the U.S. government's official web portal to all federal, state and local government web resources and services.